Alaska — SYDS — position and weather

sailwx.info

Track history (hours):
 
Tides and Currents Weather Stations Pressure Air Temp Water Temp Dewpoint Dewpoint Depression Visibility Wind Speed Wind Dir Waves Ship Positions

Alaska

Last reported at 2018-Mar-25 00:37 UTC. Time now 2018-Apr-26 02:07 UTC.
Position S 33°14' E 031°06'.
Warning: this ship's position is 32 days out of date.

Length 274 m; draft 9.2 m.

Type: Tanker. MMSI: 240472000.

Date/timePositionNaut miles runAvg speedWind from/ knotsBaromVisibWave heightAir tempDewpointWater temp
2018-Mar-25 00:37S 33°14' E 031°06'212.7
2018-Mar-25 00:29S 33°13' E 031°08'712.5
2018-Mar-24 23:56S 33°10' E 031°15'512.2
2018-Mar-24 23:30S 33°07' E 031°21'3012.3
2018-Mar-24 21:05S 32°53' E 031°52'112.7
2018-Mar-24 21:00S 32°53' E 031°53'612.8
2018-Mar-24 20:30S 32°50' E 031°60'612.7
2018-Mar-24 20:01S 32°47' E 032°07'612.5
2018-Mar-24 19:31S 32°44' E 032°13'612.7
2018-Mar-24 19:00S 32°41' E 032°20'612.8
2018-Mar-24 18:31S 32°38' E 032°27'612.7
2018-Mar-24 18:01S 32°35' E 032°33'612.7
2018-Mar-24 17:31S 32°32' E 032°40'712.7
2018-Mar-24 16:58S 32°29' E 032°47'612.6
2018-Mar-24 16:30S 32°26' E 032°53'912.8
2018-Mar-24 15:47S 32°22' E 033°03'413.0
2018-Mar-24 15:29S 32°20' E 033°07'1313.1
2018-Mar-24 14:30S 32°14' E 033°21'613.1
2018-Mar-24 14:01S 32°11' E 033°27'  
Track history (hours):
 
Tides and Currents Weather Stations Pressure Air Temp Water Temp Dewpoint Dewpoint Depression Visibility Wind Speed Wind Dir Waves Ship Positions

Alaska

Last reported at 2018-Mar-25 00:37 UTC. Time now 2018-Apr-26 02:07 UTC.
Position S 33°14' E 031°06'.
Warning: this ship's position is 32 days out of date.

Length 274 m; draft 9.2 m.

Type: Tanker. MMSI: 240472000.

Date/timePositionNaut miles runAvg speedWind from/ knotsBaromVisibWave heightAir tempDewpointWater temp
2018-Mar-25 00:37S 33°14' E 031°06'212.7
2018-Mar-25 00:29S 33°13' E 031°08'712.5
2018-Mar-24 23:56S 33°10' E 031°15'512.2
2018-Mar-24 23:30S 33°07' E 031°21'3012.3
2018-Mar-24 21:05S 32°53' E 031°52'112.7
2018-Mar-24 21:00S 32°53' E 031°53'612.8
2018-Mar-24 20:30S 32°50' E 031°60'612.7
2018-Mar-24 20:01S 32°47' E 032°07'612.5
2018-Mar-24 19:31S 32°44' E 032°13'612.7
2018-Mar-24 19:00S 32°41' E 032°20'612.8
2018-Mar-24 18:31S 32°38' E 032°27'612.7
2018-Mar-24 18:01S 32°35' E 032°33'612.7
2018-Mar-24 17:31S 32°32' E 032°40'712.7
2018-Mar-24 16:58S 32°29' E 032°47'612.6
2018-Mar-24 16:30S 32°26' E 032°53'912.8
2018-Mar-24 15:47S 32°22' E 033°03'413.0
2018-Mar-24 15:29S 32°20' E 033°07'1313.1
2018-Mar-24 14:30S 32°14' E 033°21'613.1
2018-Mar-24 14:01S 32°11' E 033°27'  

Dump ship's entire track history